Terminal Aerodrome Forecast
Issued by NWS

Home | Current Version | Previous Version | Text Only | Print | Product List | Glossary On
Versions: 1 2 3 4 5 6 7 8 9 10 11 12 13
000
FTUS45 KRIW 031122
TAFBPI
TAF
KBPI 031122Z 0312/0412 VRB05KT P6SM SKC
     FM032000 29010KT P6SM SCT100
     FM040000 35010KT P6SM SCT100
     FM040700 VRB05KT P6SM FEW150=

USA.gov is the U.S. government's official web portal to all federal, state and local government web resources and services.